createdAt,value
2022-09-29T00:00:46.302Z,13.60
2022-09-29T00:01:46.341Z,13.80
2022-09-29T00:02:46.305Z,11.60
2022-09-29T00:03:46.260Z,12.00
2022-09-29T00:04:46.249Z,16.90
2022-09-29T00:05:46.247Z,16.60
2022-09-29T00:06:46.258Z,13.00
2022-09-29T00:07:46.259Z,12.60
2022-09-29T00:08:46.246Z,16.60
2022-09-29T00:09:46.256Z,13.20
2022-09-29T00:10:46.224Z,15.20
2022-09-29T00:11:46.208Z,12.30
2022-09-29T00:12:46.217Z,17.40
2022-09-29T00:13:46.218Z,20.80
2022-09-29T00:14:47.961Z,16.30
2022-09-29T00:15:46.191Z,14.00
2022-09-29T00:16:46.233Z,13.90
2022-09-29T00:18:09.232Z,14.00
2022-09-29T00:18:47.170Z,12.00
2022-09-29T00:19:46.157Z,15.10
2022-09-29T00:20:46.153Z,15.30
2022-09-29T00:21:46.152Z,12.90
2022-09-29T00:22:46.137Z,11.90
2022-09-29T00:23:46.141Z,12.30
2022-09-29T00:24:46.127Z,13.30
2022-09-29T00:25:46.131Z,14.60
2022-09-29T00:26:46.107Z,13.50
2022-09-29T00:27:46.099Z,14.50
2022-09-29T00:28:46.119Z,14.90
2022-09-29T00:29:46.098Z,14.30
2022-09-29T00:30:46.083Z,13.00
2022-09-29T00:31:46.116Z,13.50
2022-09-29T00:32:46.069Z,12.40
2022-09-29T00:33:46.077Z,13.00
2022-09-29T00:34:46.073Z,13.00
2022-09-29T00:35:46.044Z,12.00
2022-09-29T00:36:46.047Z,11.70
2022-09-29T00:37:46.026Z,12.90
2022-09-29T00:38:46.032Z,11.20
2022-09-29T00:39:46.019Z,13.30
2022-09-29T00:40:46.088Z,12.60
2022-09-29T00:41:46.064Z,13.60
2022-09-29T00:42:46.015Z,12.60
2022-09-29T00:43:45.991Z,14.20
2022-09-29T00:44:45.984Z,15.00
2022-09-29T00:45:46.037Z,15.00
2022-09-29T00:46:45.971Z,15.20
2022-09-29T00:47:46.006Z,13.70
2022-09-29T00:48:45.961Z,16.40
2022-09-29T00:49:45.971Z,14.70
2022-09-29T00:50:45.946Z,15.20
2022-09-29T00:51:45.969Z,14.00
2022-09-29T00:52:45.941Z,15.80
2022-09-29T00:53:45.925Z,13.10
2022-09-29T00:54:45.924Z,14.80
2022-09-29T00:55:45.923Z,14.70
2022-09-29T00:56:45.914Z,13.50
2022-09-29T00:57:45.921Z,15.90
2022-09-29T00:58:45.896Z,16.50
2022-09-29T00:59:45.893Z,15.90
2022-09-29T01:00:45.924Z,15.60
2022-09-29T01:01:45.918Z,16.40
2022-09-29T01:02:45.899Z,16.00
2022-09-29T01:03:45.856Z,17.80
2022-09-29T01:04:45.853Z,16.00
2022-09-29T01:05:45.869Z,14.70
2022-09-29T01:06:45.871Z,13.80
2022-09-29T01:07:45.839Z,15.30
2022-09-29T01:08:45.824Z,15.20
2022-09-29T01:09:45.819Z,15.10
2022-09-29T01:10:45.819Z,17.20
2022-09-29T01:11:45.829Z,18.90
2022-09-29T01:12:45.837Z,16.30
2022-09-29T01:13:45.810Z,16.20
2022-09-29T01:14:45.783Z,17.40
2022-09-29T01:15:45.776Z,16.60
2022-09-29T01:16:45.932Z,16.10
2022-09-29T01:17:45.767Z,15.50
2022-09-29T01:18:45.792Z,16.30
2022-09-29T01:19:45.763Z,14.00
2022-09-29T01:20:45.771Z,14.00
2022-09-29T01:21:45.737Z,13.90
2022-09-29T01:22:45.733Z,14.70
2022-09-29T01:23:45.725Z,13.80
2022-09-29T01:24:45.722Z,19.20
2022-09-29T01:25:45.709Z,16.10
2022-09-29T01:26:45.725Z,16.50
2022-09-29T01:27:45.699Z,15.50
2022-09-29T01:28:45.703Z,15.40
2022-09-29T01:29:45.689Z,15.40
2022-09-29T01:30:45.686Z,13.10
2022-09-29T01:31:45.784Z,12.20
2022-09-29T01:32:45.672Z,11.10
2022-09-29T01:33:45.655Z,12.10
2022-09-29T01:34:45.657Z,13.60
2022-09-29T01:35:45.667Z,15.50
2022-09-29T01:36:45.649Z,12.90
2022-09-29T01:37:45.644Z,16.00
2022-09-29T01:38:45.634Z,30.60
2022-09-29T01:39:45.626Z,15.70
2022-09-29T01:40:45.661Z,14.40
2022-09-29T01:41:45.635Z,17.90
2022-09-29T01:42:45.628Z,19.80
2022-09-29T01:43:45.591Z,21.10
2022-09-29T01:44:45.585Z,19.10
2022-09-29T01:45:45.611Z,15.10
2022-09-29T01:46:45.586Z,18.60
2022-09-29T01:47:45.583Z,23.20
2022-09-29T01:48:45.575Z,23.10
2022-09-29T01:49:45.554Z,27.40
2022-09-29T01:50:45.562Z,48.10
2022-09-29T01:51:45.540Z,31.40
2022-09-29T01:52:45.559Z,52.80
2022-09-29T01:53:45.535Z,35.90
2022-09-29T01:54:45.518Z,61.60
2022-09-29T01:55:45.520Z,293.50
2022-09-29T01:56:45.524Z,38.40
2022-09-29T01:57:45.508Z,71.10
2022-09-29T01:58:45.513Z,34.10
2022-09-29T01:59:45.499Z,105.40
2022-09-29T02:00:45.525Z,72.00
2022-09-29T02:01:45.502Z,51.00
2022-09-29T02:02:45.497Z,18.30
2022-09-29T02:03:45.483Z,18.30
2022-09-29T02:04:45.457Z,18.40
2022-09-29T02:05:45.450Z,24.70
2022-09-29T02:06:45.448Z,18.60
2022-09-29T02:07:45.449Z,18.50
2022-09-29T02:08:45.432Z,18.10
2022-09-29T02:09:45.434Z,16.30
2022-09-29T02:10:45.445Z,79.40
2022-09-29T02:11:45.411Z,32.20
2022-09-29T02:12:45.409Z,18.40
2022-09-29T02:13:45.401Z,17.40
2022-09-29T02:14:45.396Z,17.20
2022-09-29T02:15:45.385Z,15.30
2022-09-29T02:16:45.402Z,14.80
2022-09-29T02:17:45.382Z,17.10
2022-09-29T02:18:45.379Z,16.10
2022-09-29T02:19:45.387Z,16.70
2022-09-29T02:20:45.379Z,15.20
2022-09-29T02:21:45.353Z,13.60
2022-09-29T02:22:45.340Z,14.50
2022-09-29T02:23:45.334Z,13.20
2022-09-29T02:24:45.335Z,14.70
2022-09-29T02:25:45.319Z,14.70
2022-09-29T02:26:45.340Z,13.10
2022-09-29T02:27:45.329Z,15.00
2022-09-29T02:28:45.312Z,15.00
2022-09-29T02:29:45.304Z,16.00
2022-09-29T02:30:45.294Z,14.20
2022-09-29T02:31:45.322Z,15.70
2022-09-29T02:32:45.312Z,14.60
2022-09-29T02:33:45.299Z,13.40
2022-09-29T02:34:45.278Z,17.90
2022-09-29T02:35:45.268Z,16.60
2022-09-29T02:36:45.264Z,13.90
2022-09-29T02:37:45.248Z,15.20
2022-09-29T02:38:45.269Z,16.30
2022-09-29T02:39:45.256Z,16.10
2022-09-29T02:40:45.254Z,13.70
2022-09-29T02:41:45.228Z,13.90
2022-09-29T02:42:45.226Z,13.00
2022-09-29T02:43:45.244Z,19.50
2022-09-29T02:44:45.211Z,20.20
2022-09-29T02:45:45.243Z,17.40
2022-09-29T02:46:45.195Z,18.40
2022-09-29T02:47:45.191Z,22.40
2022-09-29T02:48:45.188Z,21.50
2022-09-29T02:49:45.201Z,18.60
2022-09-29T02:50:45.180Z,21.00
2022-09-29T02:51:45.166Z,18.70
2022-09-29T02:52:45.158Z,16.60
2022-09-29T02:53:45.146Z,30.40
2022-09-29T02:54:45.134Z,18.40
2022-09-29T02:55:45.161Z,71.30
2022-09-29T02:56:45.127Z,16.70
2022-09-29T02:57:45.139Z,18.90
2022-09-29T02:58:48.247Z,32.60
2022-09-29T02:59:45.121Z,20.20
2022-09-29T03:00:45.146Z,31.80
2022-09-29T03:01:45.125Z,18.40
2022-09-29T03:02:45.091Z,37.40
2022-09-29T03:03:45.149Z,20.10
2022-09-29T03:04:45.086Z,17.60
2022-09-29T03:05:45.094Z,32.10
2022-09-29T03:06:45.063Z,15.00
2022-09-29T03:07:45.082Z,15.70
2022-09-29T03:08:45.056Z,22.50
2022-09-29T03:09:45.053Z,30.40
2022-09-29T03:10:45.046Z,39.60
2022-09-29T03:11:45.051Z,19.80
2022-09-29T03:12:45.066Z,24.60
2022-09-29T03:13:45.049Z,18.60
2022-09-29T03:14:45.030Z,20.90
2022-09-29T03:15:45.016Z,27.70
2022-09-29T03:16:45.080Z,33.70
2022-09-29T03:17:45.000Z,34.50
2022-09-29T03:18:45.000Z,26.00
2022-09-29T03:19:45.005Z,65.10
2022-09-29T03:20:44.976Z,35.00
2022-09-29T03:21:44.968Z,73.80
2022-09-29T03:22:44.967Z,89.80
2022-09-29T03:23:44.955Z,86.00
2022-09-29T03:24:44.983Z,22.20
2022-09-29T03:25:44.953Z,28.90
2022-09-29T03:26:44.950Z,110.00
2022-09-29T03:27:44.933Z,31.90
2022-09-29T03:28:44.931Z,118.60
2022-09-29T03:29:45.056Z,43.00
2022-09-29T03:30:44.938Z,89.10
2022-09-29T03:31:45.023Z,36.90
2022-09-29T03:32:44.906Z,139.70
2022-09-29T03:33:44.905Z,80.40
2022-09-29T03:34:44.894Z,72.30
2022-09-29T03:35:44.893Z,34.90
2022-09-29T03:36:44.876Z,53.10
2022-09-29T03:37:44.915Z,53.40
2022-09-29T03:38:44.869Z,82.50
2022-09-29T03:39:44.856Z,67.70
2022-09-29T03:40:44.954Z,28.90
2022-09-29T03:41:44.863Z,128.90
2022-09-29T03:42:44.869Z,103.40
2022-09-29T03:43:44.834Z,99.80
2022-09-29T03:44:44.833Z,138.00
2022-09-29T03:45:44.850Z,139.30
2022-09-29T03:46:44.807Z,44.30
2022-09-29T03:47:44.809Z,97.10
2022-09-29T03:48:44.852Z,85.30
2022-09-29T03:49:44.789Z,192.40
2022-09-29T03:50:44.791Z,88.80
2022-09-29T03:51:44.798Z,76.40
2022-09-29T03:52:44.770Z,107.00
2022-09-29T03:53:44.821Z,238.00
2022-09-29T03:54:44.897Z,80.50
2022-09-29T03:55:44.792Z,106.30
2022-09-29T03:56:44.776Z,334.00
2022-09-29T03:57:44.759Z,47.00
2022-09-29T03:58:44.736Z,92.20
2022-09-29T03:59:45.777Z,237.90
2022-09-29T04:00:44.838Z,487.00
2022-09-29T04:01:44.734Z,729.50
2022-09-29T04:02:44.718Z,188.80
2022-09-29T04:03:44.718Z,76.60
2022-09-29T04:04:44.717Z,49.50
2022-09-29T04:05:44.736Z,39.50
2022-09-29T04:06:44.693Z,196.90
2022-09-29T04:07:44.684Z,162.20
2022-09-29T04:08:44.723Z,24.00
2022-09-29T04:09:44.744Z,43.60
2022-09-29T04:10:44.657Z,314.40
2022-09-29T04:11:44.656Z,232.80
2022-09-29T04:12:44.651Z,64.90
2022-09-29T04:13:44.789Z,90.90
2022-09-29T04:14:44.647Z,215.30
2022-09-29T04:15:44.700Z,235.00
2022-09-29T04:16:44.697Z,279.10
2022-09-29T04:17:44.672Z,141.00
2022-09-29T04:18:44.620Z,140.70
2022-09-29T04:19:44.606Z,133.70
2022-09-29T04:20:44.611Z,26.30
2022-09-29T04:21:44.620Z,28.10
2022-09-29T04:22:44.593Z,81.60
2022-09-29T04:23:44.588Z,50.00
2022-09-29T04:24:44.594Z,23.80
2022-09-29T04:25:44.577Z,191.80
2022-09-29T04:26:44.557Z,380.00
2022-09-29T04:27:44.578Z,223.00
2022-09-29T04:28:44.642Z,35.60
2022-09-29T04:29:44.550Z,100.50
2022-09-29T04:30:44.550Z,22.80
2022-09-29T04:31:44.590Z,13.70
2022-09-29T04:32:44.550Z,69.30
2022-09-29T04:33:44.529Z,73.80
2022-09-29T04:34:44.519Z,56.70
2022-09-29T04:35:44.514Z,23.20
2022-09-29T04:36:44.529Z,22.80
2022-09-29T04:37:44.501Z,11.90
2022-09-29T04:38:44.513Z,12.20
2022-09-29T04:39:44.486Z,70.90
2022-09-29T04:40:44.567Z,117.30
2022-09-29T04:41:44.476Z,10.70
2022-09-29T04:42:44.470Z,11.30
2022-09-29T04:43:44.464Z,11.70
2022-09-29T04:44:44.474Z,16.10
2022-09-29T04:45:44.501Z,10.50
2022-09-29T04:46:44.449Z,16.30
2022-09-29T04:47:44.433Z,13.60
2022-09-29T04:48:44.438Z,17.50
2022-09-29T04:49:44.421Z,11.20
2022-09-29T04:50:44.475Z,10.90
2022-09-29T04:51:44.417Z,16.40
2022-09-29T04:52:44.430Z,14.40
2022-09-29T04:53:52.579Z,18.00
2022-09-29T04:54:44.397Z,16.50
2022-09-29T04:55:44.394Z,15.20
2022-09-29T04:56:44.386Z,22.90
2022-09-29T04:57:44.379Z,13.10
2022-09-29T04:58:44.395Z,93.50
2022-09-29T04:59:44.357Z,14.50
2022-09-29T05:00:44.412Z,20.00
2022-09-29T05:01:44.390Z,15.40
2022-09-29T05:02:47.726Z,18.40
2022-09-29T05:03:44.341Z,47.90
2022-09-29T05:04:44.345Z,50.80
2022-09-29T05:05:44.330Z,37.20
2022-09-29T05:06:44.351Z,24.10
2022-09-29T05:07:44.325Z,31.50
2022-09-29T05:08:44.308Z,57.70
2022-09-29T05:09:44.333Z,32.20
2022-09-29T05:10:44.319Z,19.80
2022-09-29T05:11:44.296Z,34.80
2022-09-29T05:12:44.291Z,28.30
2022-09-29T05:13:44.284Z,16.20
2022-09-29T05:14:44.278Z,20.20
2022-09-29T05:15:44.289Z,25.70
2022-09-29T05:16:44.338Z,18.40
2022-09-29T05:17:44.255Z,22.00
2022-09-29T05:18:44.254Z,49.80
2022-09-29T05:19:44.251Z,30.60
2022-09-29T05:20:59.163Z,32.30
2022-09-29T05:21:45.253Z,36.30
2022-09-29T05:22:44.230Z,29.30
2022-09-29T05:23:44.216Z,25.10
2022-09-29T05:24:44.212Z,29.00
2022-09-29T05:25:44.209Z,22.00
2022-09-29T05:26:44.208Z,34.10
2022-09-29T05:27:44.217Z,31.20
2022-09-29T05:28:44.183Z,91.90
2022-09-29T05:29:44.196Z,50.30
2022-09-29T05:30:44.175Z,50.00
2022-09-29T05:31:44.206Z,26.30
2022-09-29T05:32:44.161Z,41.00
2022-09-29T05:33:44.173Z,89.30
2022-09-29T05:34:44.170Z,42.10
2022-09-29T05:35:44.145Z,93.90
2022-09-29T05:36:44.151Z,62.10
2022-09-29T05:37:44.129Z,130.80
2022-09-29T05:38:44.129Z,63.20
2022-09-29T05:39:44.126Z,35.50
2022-09-29T05:40:44.172Z,64.90
2022-09-29T05:41:44.144Z,46.30
2022-09-29T05:42:44.111Z,20.80
2022-09-29T05:43:44.093Z,17.70
2022-09-29T05:44:44.089Z,18.30
2022-09-29T05:45:44.113Z,30.70
2022-09-29T05:46:44.089Z,33.10
2022-09-29T05:47:44.096Z,55.40
2022-09-29T05:48:44.071Z,21.20
2022-09-29T05:49:44.066Z,17.20
2022-09-29T05:50:44.062Z,31.10
2022-09-29T05:51:44.055Z,38.50
2022-09-29T05:52:44.056Z,20.40
2022-09-29T05:53:44.077Z,23.70
2022-09-29T05:54:44.033Z,27.50
2022-09-29T05:55:44.031Z,50.60
2022-09-29T05:56:45.474Z,33.60
2022-09-29T05:57:44.015Z,59.90
2022-09-29T05:58:44.028Z,26.20
2022-09-29T05:59:43.999Z,23.10
2022-09-29T06:00:44.011Z,33.50
2022-09-29T06:01:44.017Z,32.30
2022-09-29T06:02:43.981Z,94.70
2022-09-29T06:03:43.977Z,30.00
2022-09-29T06:04:44.001Z,127.70
2022-09-29T06:05:43.970Z,42.30
2022-09-29T06:06:43.967Z,92.80
2022-09-29T06:07:43.957Z,36.70
2022-09-29T06:08:43.952Z,50.80
2022-09-29T06:09:43.959Z,44.30
2022-09-29T06:10:43.932Z,58.00
2022-09-29T06:11:43.916Z,48.60
2022-09-29T06:12:43.920Z,83.50
2022-09-29T06:13:43.917Z,40.90
2022-09-29T06:14:43.906Z,61.90
2022-09-29T06:15:43.921Z,67.00
2022-09-29T06:16:43.948Z,36.20
2022-09-29T06:17:43.903Z,41.20
2022-09-29T06:18:43.881Z,92.60
2022-09-29T06:19:44.962Z,24.00
2022-09-29T06:20:43.869Z,54.30
2022-09-29T06:21:43.855Z,86.50
2022-09-29T06:22:43.857Z,425.30
2022-09-29T06:23:43.869Z,63.80
2022-09-29T06:24:43.854Z,18.30
2022-09-29T06:25:43.838Z,21.80
2022-09-29T06:26:43.859Z,19.70
2022-09-29T06:27:43.820Z,23.60
2022-09-29T06:28:43.818Z,56.10
2022-09-29T06:29:43.840Z,26.90
2022-09-29T06:30:43.809Z,25.50
2022-09-29T06:31:43.844Z,17.90
2022-09-29T06:32:43.817Z,28.90
2022-09-29T06:33:43.780Z,22.80
2022-09-29T06:34:43.788Z,21.30
2022-09-29T06:35:43.777Z,16.90
2022-09-29T06:36:43.786Z,20.10
2022-09-29T06:37:43.758Z,15.30
2022-09-29T06:38:43.762Z,17.30
2022-09-29T06:39:43.754Z,16.90
2022-09-29T06:40:43.819Z,18.30
2022-09-29T06:41:43.741Z,17.70
2022-09-29T06:42:43.771Z,16.50
2022-09-29T06:43:43.721Z,16.60
2022-09-29T06:44:43.719Z,14.90
2022-09-29T06:45:43.751Z,16.60
2022-09-29T06:46:43.712Z,17.40
2022-09-29T06:47:43.700Z,17.80
2022-09-29T06:48:43.716Z,17.00
2022-09-29T06:49:52.530Z,19.20
2022-09-29T06:50:44.686Z,17.20
2022-09-29T06:51:46.158Z,18.60
2022-09-29T06:52:51.132Z,14.60
2022-09-29T06:53:44.664Z,16.70
2022-09-29T06:54:43.657Z,16.80
2022-09-29T06:55:43.652Z,15.50
2022-09-29T06:56:43.655Z,17.10
2022-09-29T06:57:43.640Z,15.00
2022-09-29T06:58:43.669Z,17.20
2022-09-29T06:59:43.681Z,17.20
2022-09-29T07:00:45.870Z,18.20
2022-09-29T07:01:43.618Z,15.50
2022-09-29T07:02:43.652Z,18.40
2022-09-29T07:03:43.606Z,17.80
2022-09-29T07:04:43.599Z,19.50
2022-09-29T07:05:49.146Z,16.80
2022-09-29T07:06:44.593Z,21.90
2022-09-29T07:07:43.600Z,24.60
2022-09-29T07:08:43.579Z,18.10
2022-09-29T07:09:43.563Z,19.30
2022-09-29T07:10:43.562Z,20.70
2022-09-29T07:11:43.554Z,20.00
2022-09-29T07:12:43.553Z,17.40
2022-09-29T07:13:43.569Z,17.90
2022-09-29T07:14:43.538Z,25.70
2022-09-29T07:15:43.534Z,17.50
2022-09-29T07:16:43.631Z,56.10
2022-09-29T07:17:43.518Z,16.90
2022-09-29T07:18:43.533Z,28.80
2022-09-29T07:19:43.523Z,18.00
2022-09-29T07:20:43.505Z,17.90
2022-09-29T07:21:43.514Z,16.40
2022-09-29T07:22:43.487Z,123.90
2022-09-29T07:23:43.497Z,18.20
2022-09-29T07:24:43.479Z,20.70
2022-09-29T07:25:52.353Z,17.70
2022-09-29T07:26:44.467Z,19.70
2022-09-29T07:27:43.460Z,16.80
2022-09-29T07:28:43.455Z,17.20
2022-09-29T07:29:44.986Z,19.80
2022-09-29T07:30:43.451Z,18.20
2022-09-29T07:31:50.504Z,17.70
2022-09-29T07:32:56.035Z,17.70
2022-09-29T07:33:44.578Z,15.20
2022-09-29T07:34:43.440Z,17.60
2022-09-29T07:35:43.401Z,16.50
2022-09-29T07:36:43.408Z,16.90
2022-09-29T07:37:43.402Z,16.30
2022-09-29T07:38:43.396Z,17.70
2022-09-29T07:39:43.396Z,16.50
2022-09-29T07:40:43.432Z,17.70
2022-09-29T07:41:43.368Z,16.40
2022-09-29T07:42:43.369Z,14.40
2022-09-29T07:43:43.362Z,15.10
2022-09-29T07:44:43.384Z,17.30
2022-09-29T07:45:43.445Z,15.30
2022-09-29T07:46:43.344Z,19.00
2022-09-29T07:47:43.347Z,17.20
2022-09-29T07:48:43.333Z,15.60
2022-09-29T07:49:43.327Z,16.70
2022-09-29T07:50:43.335Z,17.40
2022-09-29T07:51:43.316Z,20.40
2022-09-29T07:52:43.348Z,17.60
2022-09-29T07:53:43.322Z,16.70
2022-09-29T07:54:43.292Z,17.10
2022-09-29T07:55:43.285Z,15.40
2022-09-29T07:56:43.283Z,16.00
2022-09-29T07:57:43.291Z,16.20
2022-09-29T07:58:43.271Z,16.70
2022-09-29T07:59:49.659Z,21.10
2022-09-29T08:00:44.307Z,21.50
2022-09-29T08:01:43.250Z,21.10
2022-09-29T08:02:43.299Z,20.10
2022-09-29T08:03:43.243Z,15.40
2022-09-29T08:04:43.255Z,16.10
2022-09-29T08:05:43.226Z,17.00
2022-09-29T08:06:43.223Z,17.00
2022-09-29T08:07:43.239Z,16.40
2022-09-29T08:08:53.261Z,14.70
2022-09-29T08:09:43.213Z,14.50
2022-09-29T08:10:52.132Z,16.10
2022-09-29T08:11:44.195Z,14.00
2022-09-29T08:12:44.482Z,14.40
2022-09-29T08:13:43.187Z,15.00
2022-09-29T08:14:44.322Z,17.30
2022-09-29T08:15:43.162Z,15.70
2022-09-29T08:16:43.227Z,13.80
2022-09-29T08:17:43.150Z,13.10
2022-09-29T08:18:43.152Z,13.80
2022-09-29T08:19:43.177Z,13.10
2022-09-29T08:20:43.139Z,12.60
2022-09-29T08:21:43.126Z,12.80
2022-09-29T08:22:43.125Z,13.30
2022-09-29T08:23:43.118Z,13.70
2022-09-29T08:24:43.137Z,12.80
2022-09-29T08:25:54.077Z,12.70
2022-09-29T08:26:44.459Z,11.10
2022-09-29T08:27:53.755Z,10.20
2022-09-29T08:28:44.109Z,10.90
2022-09-29T08:29:46.688Z,10.70
2022-09-29T08:30:43.075Z,10.90
2022-09-29T08:31:43.079Z,10.60
2022-09-29T08:32:43.042Z,9.90
2022-09-29T08:33:43.017Z,10.40
2022-09-29T08:34:43.016Z,9.40
2022-09-29T08:35:43.007Z,10.20
2022-09-29T08:36:43.027Z,10.40
2022-09-29T08:37:42.989Z,9.40
2022-09-29T08:38:43.003Z,10.10
2022-09-29T08:39:42.998Z,11.90
2022-09-29T08:40:43.043Z,10.10
2022-09-29T08:41:42.969Z,9.40
2022-09-29T08:42:48.697Z,9.70
2022-09-29T08:43:43.995Z,10.50
2022-09-29T08:44:43.285Z,10.60
2022-09-29T08:45:54.808Z,11.00
2022-09-29T08:46:42.970Z,9.80
2022-09-29T08:47:47.491Z,7.30
2022-09-29T08:48:55.605Z,9.40
2022-09-29T08:49:42.924Z,10.10
2022-09-29T08:50:42.900Z,9.60
2022-09-29T08:51:43.117Z,9.70
2022-09-29T08:52:51.363Z,9.10
2022-09-29T08:53:47.017Z,11.10
2022-09-29T08:54:47.488Z,10.00
2022-09-29T08:55:42.856Z,11.60
2022-09-29T08:56:42.844Z,10.30
2022-09-29T08:57:42.838Z,9.50
2022-09-29T08:58:42.860Z,9.70
2022-09-29T08:59:42.829Z,9.50
2022-09-29T09:00:42.885Z,8.50
2022-09-29T09:01:42.813Z,8.40
2022-09-29T09:02:42.822Z,11.30
2022-09-29T09:03:42.809Z,8.80
2022-09-29T09:04:42.820Z,9.40
2022-09-29T09:05:42.806Z,8.40
2022-09-29T09:06:42.779Z,8.20
2022-09-29T09:07:42.793Z,9.70
2022-09-29T09:08:42.785Z,10.30
2022-09-29T09:09:42.763Z,9.00
2022-09-29T09:10:42.753Z,9.00
2022-09-29T09:11:42.772Z,8.70
2022-09-29T09:12:42.734Z,9.80
2022-09-29T09:13:42.734Z,8.90
2022-09-29T09:14:42.734Z,10.80
2022-09-29T09:15:42.717Z,7.60
2022-09-29T09:16:42.810Z,11.60
2022-09-29T09:17:42.697Z,10.10
2022-09-29T09:18:42.692Z,14.60
2022-09-29T09:19:42.681Z,9.00
2022-09-29T09:20:42.698Z,14.30
2022-09-29T09:21:42.687Z,8.50
2022-09-29T09:22:42.696Z,13.50
2022-09-29T09:23:42.669Z,8.80
2022-09-29T09:24:42.657Z,10.10
2022-09-29T09:25:42.654Z,8.30
2022-09-29T09:26:42.636Z,10.00
2022-09-29T09:27:42.893Z,7.90
2022-09-29T09:28:42.616Z,8.00
2022-09-29T09:29:42.628Z,9.30
2022-09-29T09:30:42.655Z,7.20
2022-09-29T09:31:42.602Z,9.20
2022-09-29T09:32:42.584Z,7.40
2022-09-29T09:33:42.624Z,8.10
2022-09-29T09:34:44.920Z,8.10
2022-09-29T09:35:55.761Z,8.80
2022-09-29T09:36:43.561Z,7.80
2022-09-29T09:37:42.545Z,9.50
2022-09-29T09:38:42.572Z,8.10
2022-09-29T09:39:42.557Z,9.40
2022-09-29T09:40:42.544Z,10.80
2022-09-29T09:41:42.518Z,8.10
2022-09-29T09:42:42.515Z,9.50
2022-09-29T09:43:42.507Z,8.50
2022-09-29T09:44:42.493Z,9.20
2022-09-29T09:45:42.541Z,8.00
2022-09-29T09:46:42.515Z,6.90
2022-09-29T09:47:42.483Z,10.10
2022-09-29T09:48:42.474Z,7.70
2022-09-29T09:49:42.461Z,7.60
2022-09-29T09:50:42.456Z,7.60
2022-09-29T09:51:42.447Z,7.50
2022-09-29T09:52:42.471Z,7.80
2022-09-29T09:53:42.423Z,8.00
2022-09-29T09:54:42.437Z,9.30
2022-09-29T09:55:42.447Z,8.80
2022-09-29T09:56:42.406Z,6.90
2022-09-29T09:57:42.394Z,9.80
2022-09-29T09:58:42.405Z,8.90
2022-09-29T09:59:42.395Z,6.70
2022-09-29T10:00:42.454Z,7.00
2022-09-29T10:01:42.458Z,7.80
2022-09-29T10:02:42.409Z,6.90
2022-09-29T10:03:42.379Z,8.40
2022-09-29T10:04:42.351Z,8.20
2022-09-29T10:05:42.332Z,6.40
2022-09-29T10:06:42.341Z,9.40
2022-09-29T10:07:42.321Z,8.20
2022-09-29T10:08:42.342Z,7.40
2022-09-29T10:09:42.380Z,8.40
2022-09-29T10:10:56.451Z,7.20
2022-09-29T10:11:43.294Z,5.90
2022-09-29T10:12:42.299Z,9.20
2022-09-29T10:13:42.281Z,7.90
2022-09-29T10:14:42.279Z,7.90
2022-09-29T10:15:42.278Z,7.30
2022-09-29T10:16:42.297Z,9.10
2022-09-29T10:17:42.243Z,8.90
2022-09-29T10:18:42.276Z,6.70
2022-09-29T10:19:42.223Z,8.60
2022-09-29T10:20:42.229Z,8.00
2022-09-29T10:21:42.229Z,7.90
2022-09-29T10:22:42.208Z,8.40
2022-09-29T10:23:42.194Z,5.90
2022-09-29T10:24:42.194Z,9.20
2022-09-29T10:25:42.201Z,6.60
2022-09-29T10:26:42.199Z,7.20
2022-09-29T10:27:42.163Z,7.90
2022-09-29T10:28:42.158Z,6.20
2022-09-29T10:29:42.149Z,7.00
2022-09-29T10:30:42.162Z,6.70
2022-09-29T10:31:42.134Z,6.40
2022-09-29T10:32:42.142Z,8.20
2022-09-29T10:33:42.116Z,5.70
2022-09-29T10:34:42.118Z,7.30
2022-09-29T10:35:42.134Z,6.00
2022-09-29T10:36:42.107Z,8.10
2022-09-29T10:37:42.095Z,5.80
2022-09-29T10:38:42.090Z,5.40
2022-09-29T10:39:42.084Z,6.20
2022-09-29T10:40:42.073Z,7.20
2022-09-29T10:41:42.097Z,6.10
2022-09-29T10:42:42.060Z,5.60
2022-09-29T10:43:42.057Z,5.60
2022-09-29T10:44:42.046Z,5.60
2022-09-29T10:45:42.057Z,7.10
2022-09-29T10:46:42.030Z,5.50
2022-09-29T10:47:42.052Z,5.20
2022-09-29T10:48:42.021Z,6.40
2022-09-29T10:49:42.018Z,6.70
2022-09-29T10:50:41.998Z,6.50
2022-09-29T10:51:41.999Z,6.10
2022-09-29T10:52:42.012Z,6.30
2022-09-29T10:53:42.814Z,7.30
2022-09-29T10:54:41.969Z,5.10
2022-09-29T10:55:41.957Z,6.10
2022-09-29T10:56:41.964Z,6.50
2022-09-29T10:57:41.953Z,6.40
2022-09-29T10:58:58.540Z,6.30
2022-09-29T10:59:42.924Z,5.80
2022-09-29T11:00:41.941Z,4.90
2022-09-29T11:01:41.928Z,6.40
2022-09-29T11:02:41.979Z,4.50
2022-09-29T11:03:41.893Z,4.50
2022-09-29T11:04:41.896Z,4.70
2022-09-29T11:05:41.874Z,4.70
2022-09-29T11:06:44.310Z,4.10
2022-09-29T11:07:41.883Z,4.00
2022-09-29T11:08:41.857Z,4.90
2022-09-29T11:09:41.898Z,6.60
2022-09-29T11:10:41.848Z,5.40
2022-09-29T11:11:41.873Z,5.50
2022-09-29T11:12:41.827Z,6.10
2022-09-29T11:13:41.818Z,4.50
2022-09-29T11:14:41.815Z,5.80
2022-09-29T11:15:41.820Z,5.10
2022-09-29T11:16:41.820Z,6.20
2022-09-29T11:17:41.820Z,5.10
2022-09-29T11:18:41.788Z,8.70
2022-09-29T11:19:41.775Z,7.70
2022-09-29T11:20:41.779Z,6.00
2022-09-29T11:21:41.764Z,5.20
2022-09-29T11:22:41.744Z,5.30
2022-09-29T11:23:41.761Z,6.10
2022-09-29T11:24:41.741Z,6.00
2022-09-29T11:25:41.722Z,7.20
2022-09-29T11:26:43.821Z,4.90
2022-09-29T11:27:41.707Z,7.40
2022-09-29T11:28:41.706Z,5.40
2022-09-29T11:29:41.725Z,6.00
2022-09-29T11:30:41.714Z,5.20
2022-09-29T11:31:41.674Z,6.60
2022-09-29T11:32:41.682Z,6.00
2022-09-29T11:33:41.659Z,4.80
2022-09-29T11:34:41.653Z,6.70
2022-09-29T11:35:41.677Z,6.10
2022-09-29T11:36:41.635Z,6.00
2022-09-29T11:37:41.625Z,6.00
2022-09-29T11:38:41.651Z,6.50
2022-09-29T11:39:41.639Z,7.50
2022-09-29T11:40:41.607Z,5.60
2022-09-29T11:41:41.598Z,5.60
2022-09-29T11:42:41.586Z,5.00
2022-09-29T11:43:41.612Z,6.60
2022-09-29T11:44:41.594Z,6.80
2022-09-29T11:45:41.616Z,5.20
2022-09-29T11:46:41.563Z,5.00
2022-09-29T11:47:41.551Z,6.20
2022-09-29T11:48:41.546Z,5.40
2022-09-29T11:49:41.576Z,6.70
2022-09-29T11:50:41.530Z,4.10
2022-09-29T11:51:41.542Z,5.00
2022-09-29T11:52:41.512Z,5.70
2022-09-29T11:53:41.505Z,5.40
2022-09-29T11:54:41.498Z,4.90
2022-09-29T11:55:41.490Z,5.80
2022-09-29T11:56:41.483Z,7.40
2022-09-29T11:57:41.494Z,6.10
2022-09-29T11:58:41.461Z,5.40
2022-09-29T11:59:41.476Z,4.80
2022-09-29T12:00:41.469Z,6.20
2022-09-29T12:01:41.439Z,4.50
2022-09-29T12:02:41.555Z,4.40
2022-09-29T12:03:41.497Z,5.20
2022-09-29T12:04:41.417Z,5.90
2022-09-29T12:05:41.424Z,4.00
2022-09-29T12:06:41.409Z,5.20
2022-09-29T12:07:41.393Z,4.80
2022-09-29T12:08:41.387Z,4.80
2022-09-29T12:09:41.445Z,5.20
2022-09-29T12:10:41.367Z,5.80
2022-09-29T12:11:54.693Z,6.00
2022-09-29T12:12:42.473Z,5.60
2022-09-29T12:13:41.335Z,5.30
2022-09-29T12:14:41.486Z,5.50
2022-09-29T12:15:41.328Z,6.50
2022-09-29T12:16:41.442Z,5.20
2022-09-29T12:17:41.309Z,5.80
2022-09-29T12:18:41.300Z,4.30
2022-09-29T12:19:41.284Z,4.60
2022-09-29T12:20:41.282Z,4.80
2022-09-29T12:21:41.279Z,4.50
2022-09-29T12:22:44.259Z,4.50
2022-09-29T12:23:41.252Z,5.80
2022-09-29T12:24:41.252Z,5.70
2022-09-29T12:25:41.241Z,4.30
2022-09-29T12:26:41.238Z,4.90
2022-09-29T12:27:41.230Z,4.80
2022-09-29T12:28:41.210Z,5.20
2022-09-29T12:29:41.256Z,3.50
2022-09-29T12:30:41.239Z,6.10
2022-09-29T12:31:41.177Z,5.80
2022-09-29T12:32:41.181Z,6.10
2022-09-29T12:33:41.164Z,6.00
2022-09-29T12:34:41.186Z,6.00
2022-09-29T12:35:41.145Z,6.20
2022-09-29T12:36:41.154Z,7.30
2022-09-29T12:37:41.135Z,5.90
2022-09-29T12:38:41.131Z,4.70
2022-09-29T12:39:41.143Z,5.80
2022-09-29T12:40:41.102Z,6.80
2022-09-29T12:41:41.098Z,5.80
2022-09-29T12:42:41.103Z,5.00
2022-09-29T12:43:41.078Z,7.80
2022-09-29T12:44:41.080Z,6.50
2022-09-29T12:45:41.061Z,4.10
2022-09-29T12:46:41.069Z,4.90
2022-09-29T12:47:41.070Z,4.60
2022-09-29T12:48:41.058Z,5.70
2022-09-29T12:49:41.035Z,3.90
2022-09-29T12:50:41.034Z,5.40
2022-09-29T12:51:41.017Z,4.30
2022-09-29T12:52:41.001Z,5.50
2022-09-29T12:53:41.017Z,6.70
2022-09-29T12:54:40.989Z,3.80
2022-09-29T12:55:40.972Z,5.00
2022-09-29T12:56:40.980Z,4.60
2022-09-29T12:57:40.962Z,6.10
2022-09-29T12:58:40.954Z,5.50
2022-09-29T12:59:40.963Z,4.80